首页
METAR-TAF:

METAR-TAF

机场 :

Meridian Regional Airport (Key Field)

子午线, 密西西比州, 美国

纬度: 32-20-17N, 经度: 088-44-52W, 海拔: 90米

当前天气观测

该预报发布于23分钟前的08:09 UTC
风速14节,风向西转西北,有时为24节阵风
温度 22°C
湿度 78%
气压 1016 hPa
能見度: 16.1公里
散云层高于1900英尺
多云层高于3000英尺
阴天层高于4000英尺
小雨

METAR: KMEI 290809Z AUTO 30014G24KT 10SM -RA SCT019 BKN030 OVC040 22/18 A3000 RMK AO2 WSHFT 0751 PRESRR P0000 T02170183

时间: 03:32 (08:32 UTC)

预报

该预报发布于3小时和6分钟前的05:26 UTC
预报有效从29日的 06点(UTC)到 30日的 06点(UTC)
风速14节,风向,有时为23节阵风
能見度: 10公里
多云层高于10000英尺
从 29日的 0800点(UTC)
风速8节,风向西南
能見度: 9.7公里
阴天层高于3500英尺
小阵雨
从 29日的 1100点(UTC)
风速7节,风向西
能見度: 10公里
多云层高于1500英尺
阴天层高于2500英尺
从 29日的 1500点(UTC)
风速5节,风向北转西北
能見度: 10公里
多云层高于5000英尺

TAF: KMEI 290526Z 2906/3006 19014G23KT P6SM BKN100 FM290800 22008KT 6SM -SHRA OVC035 FM291100 27007KT P6SM BKN015 OVC025 FM291500 34005KT P6SM BKN050

超过4000个机场的气象观测和天气预报(METAR&TAF报告)。

可查询的气象台以黄色和红色小点在地图上表示。

将鼠标移到小点上方,可查看气象台名称。

然后点击查看天气观测和预报。

如需切换地图:点击带黑十字的绿色按钮放大地图;点击带横线的绿色按钮缩小地图;或者点击绿色箭头查看邻近地区的地图。


METAR-TAF: